Time;durP1;ratioP1;P1;durP2;ratioP2;P2;SDS_P1;SDS_P2;PMS_P1;PMS_P2;Temp;Humidity;BMP_temperature;BMP_pressure;BME280_temperature;BME280_humidity;BME280_pressure;Samples;Min_cycle;Max_cycle;Signal;HPM_P1;HPM_P2
2022/08/10 00:01:03;;;;;;;25.00;11.50;;;;;;;23.42;73.43;99347.70;25031;1315;3026513;-60
2022/08/10 00:03:32;;;;;;;22.80;12.60;;;;;;;23.32;73.48;99345.17;25045;1315;3055357;-61
2022/08/10 00:06:02;;;;;;;23.40;13.30;;;;;;;23.17;74.25;99346.50;25034;1314;3026453;-60
2022/08/10 00:08:29;;;;;;;23.40;13.30;;;;;;;23.02;74.69;99344.88;24347;1314;3048293;-59
2022/08/10 00:10:58;;;;;;;21.60;13.50;;;;;;;22.97;74.95;99340.05;25030;1316;3053053;-61
2022/08/10 00:13:27;;;;;;;20.30;12.50;;;;;;;23.24;74.04;99343.23;25091;1316;3026217;-59
2022/08/10 00:15:56;;;;;;;22.90;12.60;;;;;;;23.14;74.13;99340.83;25042;1314;3049499;-61
2022/08/10 00:18:25;;;;;;;29.10;15.20;;;;;;;22.96;74.82;99337.13;25099;1316;3026432;-60
2022/08/10 00:20:54;;;;;;;29.60;13.30;;;;;;;22.67;76.20;99340.36;25049;1316;3070689;-60
2022/08/10 00:23:23;;;;;;;20.40;10.30;;;;;;;22.49;77.14;99339.17;25113;1316;3026804;-59
2022/08/10 00:25:52;;;;;;;18.00;10.90;;;;;;;22.82;76.25;99335.46;25057;1316;3026718;-60
2022/08/10 00:28:22;;;;;;;26.00;13.10;;;;;;;23.06;74.48;99331.67;25065;1316;3070576;-60
2022/08/10 00:30:51;;;;;;;19.80;11.80;;;;;;;22.97;74.64;99338.46;25065;1315;3026841;-60
2022/08/10 00:33:20;;;;;;;21.60;13.40;;;;;;;22.79;75.39;99337.43;25059;1315;3051294;-59
2022/08/10 00:35:49;;;;;;;23.00;12.90;;;;;;;22.57;76.41;99334.55;25088;1315;3026549;-59
2022/08/10 00:38:18;;;;;;;18.30;9.80;;;;;;;22.48;76.70;99338.25;25068;1315;3026419;-59
2022/08/10 00:40:47;;;;;;;25.30;12.70;;;;;;;22.81;75.75;99339.66;25091;1315;3053434;-57
2022/08/10 00:43:17;;;;;;;32.70;13.40;;;;;;;22.93;74.56;99337.81;25050;1315;3026698;-61
2022/08/10 00:45:46;;;;;;;33.00;14.70;;;;;;;22.80;75.38;99344.83;25099;1316;3054952;-58
2022/08/10 00:48:15;;;;;;;30.20;15.00;;;;;;;22.57;76.16;99344.60;25083;1315;3026217;-57
2022/08/10 00:50:43;;;;;;;24.50;15.40;;;;;;;22.44;76.60;99349.06;25092;1316;3051154;-59
2022/08/10 00:53:13;;;;;;;20.00;10.00;;;;;;;22.29;77.55;99351.02;25011;1318;3030447;-61
2022/08/10 00:55:41;;;;;;;27.30;11.60;;;;;;;22.80;75.76;99347.09;25085;1314;3058035;-61
2022/08/10 00:58:11;;;;;;;25.20;13.50;;;;;;;22.99;74.43;99348.94;25045;1316;3026561;-59
2022/08/10 01:00:41;;;;;;;22.60;14.10;;;;;;;22.75;75.11;99346.78;25049;1316;3054821;-58
2022/08/10 01:03:10;;;;;;;28.40;14.90;;;;;;;22.55;75.60;99348.73;25035;1316;3026053;-64
2022/08/10 01:05:44;;;;;;;31.10;15.30;;;;;;;22.22;77.06;99345.21;25084;1316;3026314;-58
2022/08/10 01:08:15;;;;;;;21.10;12.90;;;;;;;22.02;78.57;99347.40;25089;1316;3052214;-61
2022/08/10 01:11:04;;;;;;;22.90;13.80;;;;;;;22.25;78.00;99345.07;25036;1314;3026794;-59
2022/08/10 01:13:42;;;;;;;25.70;13.90;;;;;;;22.31;77.22;99344.73;25049;1314;3049855;-58
2022/08/10 01:16:16;;;;;;;24.90;14.20;;;;;;;22.08;78.23;99344.63;25040;1315;3055530;-60
2022/08/10 01:19:22;;;;;;;24.00;13.80;;;;;;;21.86;79.44;99343.63;25097;1315;3055412;-60
2022/08/10 01:21:57;;;;;;;28.50;12.00;;;;;;;21.78;80.14;99347.58;24914;1315;3070545;-59
2022/08/10 01:24:57;;;;;;;22.10;12.90;;;;;;;22.16;78.40;99341.63;25025;1315;3048946;-59
2022/08/10 01:27:58;;;;;;;26.50;14.10;;;;;;;22.08;78.61;99346.09;25054;1315;3054946;-59
2022/08/10 01:30:27;;;;;;;26.50;14.10;;;;;;;21.78;79.56;99352.52;24923;1320;3055652;-59
2022/08/10 01:33:26;;;;;;;19.40;12.50;;;;;;;21.52;80.61;99350.21;25064;1314;3026637;-62
2022/08/10 01:36:04;;;;;;;17.60;10.70;;;;;;;21.42;81.78;99346.79;25064;1315;3054784;-58
2022/08/10 01:38:39;;;;;;;29.10;13.50;;;;;;;21.76;80.34;99341.39;25081;1317;3053221;-59
2022/08/10 01:41:10;;;;;;;18.40;12.60;;;;;;;21.77;80.34;99338.59;25022;1315;3058110;-60
2022/08/10 01:43:42;;;;;;;26.40;13.60;;;;;;;21.61;80.86;99343.58;25088;1315;3026524;-61
2022/08/10 01:46:11;;;;;;;24.70;12.90;;;;;;;21.29;82.08;99347.70;25058;1315;3025920;-61
2022/08/10 01:48:49;;;;;;;18.70;10.80;;;;;;;21.11;83.40;99346.18;25050;1315;3026881;-61
2022/08/10 01:51:24;;;;;;;23.70;12.30;;;;;;;21.41;82.51;99344.38;25056;1315;3069911;-59
2022/08/10 01:53:54;;;;;;;21.70;13.00;;;;;;;21.40;81.90;99341.49;25102;1314;3049386;-61
2022/08/10 01:56:25;;;;;;;33.70;13.60;;;;;;;21.23;82.73;99339.42;25072;1314;3026347;-58
2022/08/10 01:58:59;;;;;;;28.70;12.20;;;;;;;21.07;83.47;99341.66;25077;1315;3026729;-60
2022/08/10 02:01:28;;;;;;;;;;;;;;;21.00;84.26;99339.75;25069;1314;3057339;-59
2022/08/10 02:04:01;;;;;;;18.70;12.00;;;;;;;21.27;82.67;99344.13;25081;1315;3029061;-57
2022/08/10 02:06:30;;;;;;;24.90;12.80;;;;;;;21.28;82.44;99340.83;25030;1314;3053273;-59
2022/08/10 02:08:59;;;;;;;26.30;14.60;;;;;;;21.09;83.07;99341.57;25083;1315;3026440;-60
2022/08/10 02:11:28;;;;;;;19.40;10.80;;;;;;;20.83;84.53;99340.23;25050;1316;3051706;-58
2022/08/10 02:13:57;;;;;;;16.80;12.20;;;;;;;21.09;83.56;99344.94;25096;1316;3026751;-56
2022/08/10 02:16:26;;;;;;;22.20;12.90;;;;;;;21.11;82.97;99345.33;25036;1316;3058962;-60
2022/08/10 02:18:55;;;;;;;19.60;14.40;;;;;;;20.98;83.39;99344.34;25133;1316;3026677;-64
2022/08/10 02:21:24;;;;;;;23.30;12.00;;;;;;;20.68;84.82;99346.08;25003;1315;3054172;-58
2022/08/10 02:23:53;;;;;;;21.00;12.10;;;;;;;20.58;85.96;99340.00;25106;1316;3026797;-60
2022/08/10 02:26:23;;;;;;;26.10;13.90;;;;;;;20.98;83.93;99338.27;25039;1316;3054796;-59
2022/08/10 02:28:52;;;;;;;26.70;14.00;;;;;;;20.97;83.60;99342.14;25064;1316;3027158;-57
2022/08/10 02:31:23;;;;;;;24.60;15.80;;;;;;;20.90;83.58;99337.23;25055;1316;3026881;-58
2022/08/10 02:33:53;;;;;;;23.80;12.10;;;;;;;20.65;84.94;99341.05;25025;1316;3054569;-60
2022/08/10 02:36:25;;;;;;;24.10;14.50;;;;;;;20.91;83.93;99340.27;25040;1316;3027034;-58
2022/08/10 02:38:55;;;;;;;26.50;15.90;;;;;;;20.84;83.95;99340.34;25093;1314;3027221;-60
2022/08/10 02:41:42;;;;;;;36.20;16.70;;;;;;;20.66;84.58;99345.14;25034;1319;3029412;-58
2022/08/10 02:44:36;;;;;;;25.70;13.00;;;;;;;20.47;85.87;99342.14;25085;1316;3055670;-61
2022/08/10 02:47:07;;;;;;;30.60;15.50;;;;;;;20.81;84.27;99343.70;25028;1317;3055320;-62
2022/08/10 02:49:48;;;;;;;29.70;17.40;;;;;;;20.74;84.13;99348.71;25030;1319;3026131;-56
2022/08/10 02:52:20;;;;;;;29.90;16.10;;;;;;;20.46;85.55;99345.52;25117;1316;3049427;-59
2022/08/10 02:54:56;;;;;;;24.20;13.70;;;;;;;20.31;86.62;99349.34;25090;1316;3026798;-58
2022/08/10 02:57:35;;;;;;;34.70;16.10;;;;;;;20.49;85.59;99355.48;25089;1316;3055565;-59
2022/08/10 03:00:08;;;;;;;31.00;17.00;;;;;;;20.54;85.01;99352.98;25032;1316;3056875;-59
2022/08/10 03:02:39;;;;;;;28.00;15.80;;;;;;;20.32;86.22;99357.96;25089;1316;3027041;-60
2022/08/10 03:05:10;;;;;;;31.10;15.00;;;;;;;20.16;87.29;99361.08;25061;1315;3028296;-56
2022/08/10 03:07:45;;;;;;;29.80;17.70;;;;;;;20.31;86.79;99361.98;25105;1314;3027045;-60
2022/08/10 03:10:17;;;;;;;30.40;18.20;;;;;;;20.44;85.70;99355.34;25055;1315;3069944;-57
2022/08/10 03:12:49;;;;;;;28.50;17.90;;;;;;;20.17;86.95;99359.33;25013;1317;3026880;-57
2022/08/10 03:15:18;;;;;;;27.70;16.70;;;;;;;20.00;87.96;99357.86;25073;1315;3026379;-62
2022/08/10 03:17:47;;;;;;;24.80;18.50;;;;;;;20.30;87.09;99347.10;25067;1318;3027882;-58
2022/08/10 03:20:16;;;;;;;34.60;20.20;;;;;;;20.27;86.49;99350.45;25013;1315;3026957;-58
2022/08/10 03:22:45;;;;;;;29.40;19.30;;;;;;;20.09;87.24;99356.61;25103;1314;3054612;-62
2022/08/10 03:25:14;;;;;;;28.40;17.70;;;;;;;19.99;88.28;99357.65;24962;1318;3026627;-58
2022/08/10 03:27:43;;;;;;;35.10;18.90;;;;;;;20.19;86.97;99361.04;25084;1315;3051104;-58
2022/08/10 03:30:12;;;;;;;33.10;20.50;;;;;;;20.22;86.61;99361.53;25016;1317;3026711;-57
2022/08/10 03:32:41;;;;;;;35.20;20.30;;;;;;;20.11;87.03;99362.78;25054;1316;3070539;-62
2022/08/10 03:35:11;;;;;;;24.80;16.40;;;;;;;19.94;87.92;99365.21;25004;1318;3026644;-57
2022/08/10 03:37:41;;;;;;;33.20;19.10;;;;;;;20.27;86.40;99354.55;24953;1317;3026482;-60
2022/08/10 03:40:10;;;;;;;31.10;19.90;;;;;;;20.43;85.14;99359.31;25056;1318;3026510;-59
2022/08/10 03:42:39;;;;;;;33.90;19.70;;;;;;;20.20;85.84;99359.95;25048;1315;3026481;-58
2022/08/10 03:45:08;;;;;;;31.40;17.10;;;;;;;20.00;87.13;99364.13;25032;1315;3051349;-59
2022/08/10 03:47:38;;;;;;;28.30;18.20;;;;;;;20.17;86.31;99361.48;25057;1315;3026188;-60
2022/08/10 03:50:07;;;;;;;30.90;19.70;;;;;;;20.29;85.20;99358.08;24970;1317;3051198;-58
2022/08/10 03:52:37;;;;;;;35.00;20.20;;;;;;;20.08;85.98;99360.55;25090;1315;3027026;-58
2022/08/10 03:55:07;;;;;;;30.00;15.90;;;;;;;19.94;86.62;99363.45;25004;1316;3028924;-59
2022/08/10 03:57:36;;;;;;;31.50;19.10;;;;;;;19.98;86.54;99361.41;25089;1314;3051345;-60
2022/08/10 04:00:07;;;;;;;30.00;18.80;;;;;;;20.17;85.65;99356.59;25080;1314;3026342;-58
2022/08/10 04:02:36;;;;;;;35.30;21.90;;;;;;;20.15;85.35;99357.96;25033;1314;3069016;-60
2022/08/10 04:05:06;;;;;;;26.40;17.40;;;;;;;19.87;86.54;99362.75;25120;1314;3026489;-59
2022/08/10 04:07:35;;;;;;;29.20;18.30;;;;;;;19.85;86.97;99357.95;25125;1315;3052313;-59
2022/08/10 04:10:05;;;;;;;33.60;20.30;;;;;;;20.11;85.38;99354.10;24984;1319;3026574;-57
2022/08/10 04:12:35;;;;;;;30.00;20.60;;;;;;;20.02;85.50;99357.61;25093;1316;3055707;-61
2022/08/10 04:15:05;;;;;;;35.40;18.80;;;;;;;19.82;86.26;99361.08;25054;1316;3026651;-59
2022/08/10 04:17:35;;;;;;;27.60;18.40;;;;;;;19.78;87.00;99354.23;25046;1316;3051731;-57
2022/08/10 04:20:05;;;;;;;30.20;18.60;;;;;;;20.17;85.18;99354.53;25096;1316;3026405;-59
2022/08/10 04:22:34;;;;;;;36.60;20.40;;;;;;;20.22;84.33;99341.55;25067;1316;3057013;-59
2022/08/10 04:25:04;;;;;;;33.90;20.50;;;;;;;20.13;84.64;99341.40;25092;1316;3026566;-57
2022/08/10 04:27:33;;;;;;;26.10;16.20;;;;;;;20.03;85.07;99345.95;25092;1316;3055302;-59
2022/08/10 04:30:03;;;;;;;26.60;18.30;;;;;;;20.32;83.48;99340.20;25033;1318;3026209;-57
2022/08/10 04:32:33;;;;;;;40.70;18.80;;;;;;;20.40;82.69;99345.25;25111;1316;3052396;-60
2022/08/10 04:35:03;;;;;;;33.40;20.30;;;;;;;20.33;82.71;99341.02;25116;1316;3026578;-59
2022/08/10 04:37:32;;;;;;;24.80;17.60;;;;;;;20.09;83.67;99343.58;25070;1316;3026083;-57
2022/08/10 04:40:02;;;;;;;24.00;16.00;;;;;;;19.93;84.50;99354.78;25065;1316;3028713;-60
2022/08/10 04:42:31;;;;;;;30.80;18.30;;;;;;;20.21;83.35;99345.42;25101;1316;3026507;-60
2022/08/10 04:45:07;;;;;;;31.40;16.70;;;;;;;20.27;82.92;99335.92;25053;1315;3028550;-57
2022/08/10 04:47:37;;;;;;;28.90;18.20;;;;;;;20.14;83.62;99350.54;25063;1315;3049690;-61
2022/08/10 04:50:06;;;;;;;28.10;16.70;;;;;;;20.10;83.69;99341.21;25087;1316;3029107;-60
2022/08/10 04:52:36;;;;;;;31.20;16.30;;;;;;;20.08;84.19;99342.50;25075;1315;3027057;-58
2022/08/10 04:55:05;;;;;;;33.00;17.10;;;;;;;20.49;82.60;99334.85;24999;1316;3026922;-58
2022/08/10 04:57:35;;;;;;;30.60;18.50;;;;;;;20.51;81.81;99338.20;25064;1315;3055136;-60
2022/08/10 05:00:04;;;;;;;29.20;19.50;;;;;;;20.39;82.18;99342.48;25093;1316;3026518;-60
2022/08/10 05:02:35;;;;;;;25.30;15.50;;;;;;;20.20;83.03;99347.30;25031;1315;3049658;-60
2022/08/10 05:05:04;;;;;;;29.80;17.70;;;;;;;20.13;84.02;99347.84;25071;1316;3026670;-58
2022/08/10 05:07:34;;;;;;;26.60;16.60;;;;;;;20.51;82.02;99343.55;25091;1315;3057334;-60
2022/08/10 05:10:05;;;;;;;34.20;20.60;;;;;;;20.51;81.70;99343.14;25065;1314;3026685;-57
2022/08/10 05:12:37;;;;;;;34.40;19.10;;;;;;;20.46;82.16;99338.23;25086;1315;3052498;-60
2022/08/10 05:15:09;;;;;;;29.60;16.50;;;;;;;20.53;82.16;99346.20;25071;1315;3026477;-62
2022/08/10 05:17:41;;;;;;;26.10;17.30;;;;;;;21.07;80.30;99344.80;25030;1314;3027100;-60
2022/08/10 05:20:10;;;;;;;34.50;18.40;;;;;;;21.19;79.16;99342.89;25070;1315;3027222;-58
2022/08/10 05:22:44;;;;;;;30.90;19.80;;;;;;;20.97;79.31;99334.63;25115;1314;3026650;-62
2022/08/10 05:25:15;;;;;;;32.80;18.40;;;;;;;20.84;80.13;99342.78;25017;1315;3026249;-61
2022/08/10 05:27:44;;;;;;;31.70;16.80;;;;;;;20.69;81.31;99343.48;25047;1315;3026789;-60
2022/08/10 05:30:17;;;;;;;32.80;18.40;;;;;;;21.11;79.47;99341.40;25093;1315;3026261;-59
2022/08/10 05:32:46;;;;;;;28.60;18.30;;;;;;;21.18;78.38;99340.30;25029;1314;3027856;-60
2022/08/10 05:35:16;;;;;;;30.50;19.40;;;;;;;21.02;79.29;99341.08;25060;1315;3026709;-57
2022/08/10 05:37:45;;;;;;;29.90;17.60;;;;;;;20.85;80.03;99340.98;25056;1314;3029425;-58
2022/08/10 05:40:14;;;;;;;32.50;17.20;;;;;;;20.82;80.43;99338.56;25003;1314;3053756;-60
2022/08/10 05:42:43;;;;;;;35.40;19.20;;;;;;;21.14;79.47;99337.36;25084;1315;3026602;-61
2022/08/10 05:45:32;;;;;;;41.10;20.00;;;;;;;21.34;78.58;99335.21;25039;1315;3054014;-60
2022/08/10 05:48:02;;;;;;;38.90;20.70;;;;;;;21.27;78.70;99332.77;25085;1320;3054249;-62
2022/08/10 05:50:33;;;;;;;35.70;18.80;;;;;;;21.15;79.19;99337.60;24980;1317;3026877;-58
2022/08/10 05:53:02;;;;;;;34.50;17.30;;;;;;;21.10;79.77;99338.09;25023;1314;3026295;-59
2022/08/10 05:55:31;;;;;;;30.00;18.80;;;;;;;21.50;78.36;99337.77;25093;1315;3026676;-56
2022/08/10 05:58:00;;;;;;;35.70;20.30;;;;;;;21.76;77.05;99340.30;25008;1317;3058611;-61
2022/08/10 06:00:29;;;;;;;34.70;19.90;;;;;;;21.82;76.26;99328.38;25075;1314;3026405;-59
2022/08/10 06:03:00;;;;;;;34.70;21.50;;;;;;;21.70;76.36;99336.67;25011;1316;3054809;-57
2022/08/10 06:05:31;;;;;;;28.20;17.00;;;;;;;21.63;76.65;99334.76;25117;1315;3026156;-57
2022/08/10 06:08:07;;;;;;;34.50;19.20;;;;;;;22.03;75.71;99328.81;25080;1314;3026829;-60
2022/08/10 06:10:36;;;;;;;38.30;20.50;;;;;;;22.04;75.09;99341.11;25003;1317;3055594;-58
2022/08/10 06:15:55;;;;;;;40.50;20.90;;;;;;;21.91;75.41;99333.68;25004;1318;3069696;-60
2022/08/10 06:18:24;;;;;;;35.90;19.40;;;;;;;21.95;75.19;99330.94;25056;1315;3026576;-59
2022/08/10 06:20:53;;;;;;;43.20;16.90;;;;;;;22.08;75.20;99327.56;25108;1317;3026440;-59
2022/08/10 06:23:22;;;;;;;34.90;18.90;;;;;;;22.70;72.41;99327.52;24996;1318;3069745;-61
2022/08/10 06:25:51;;;;;;;28.00;19.60;;;;;;;22.87;70.78;99325.83;25126;1317;3026394;-60
2022/08/10 06:28:21;;;;;;;42.40;22.10;;;;;;;22.92;70.30;99319.84;25008;1316;3051142;-57
2022/08/10 06:30:51;;;;;;;32.60;20.90;;;;;;;22.82;71.12;99328.30;25019;1316;3029424;-59
2022/08/10 06:33:21;;;;;;;46.20;19.90;;;;;;;22.85;70.43;99328.15;25056;1316;3025943;-61
2022/08/10 06:35:52;;;;;;;32.70;19.30;;;;;;;23.03;69.31;99326.81;25016;1316;3026696;-59
2022/08/10 06:38:22;;;;;;;34.40;19.20;;;;;;;23.06;69.14;99328.30;25034;1317;3027009;-59
2022/08/10 06:40:53;;;;;;;31.30;15.90;;;;;;;23.12;68.74;99330.38;25010;1318;3026159;-61
2022/08/10 06:43:22;;;;;;;30.80;18.20;;;;;;;23.53;67.46;99326.02;25058;1317;3026365;-62
2022/08/10 06:45:58;;;;;;;48.80;19.20;;;;;;;23.89;66.24;99318.64;24954;1319;3030655;-61
2022/08/10 06:48:33;;;;;;;32.70;18.50;;;;;;;23.89;65.73;99318.17;25094;1316;3055768;-59
2022/08/10 06:51:05;;;;;;;37.30;19.60;;;;;;;23.81;65.40;99315.98;25014;1317;3049985;-60
2022/08/10 06:53:36;;;;;;;40.10;20.00;;;;;;;23.70;65.56;99312.98;25029;1317;3026727;-61
2022/08/10 06:56:10;;;;;;;44.80;20.50;;;;;;;23.73;65.49;99314.50;25019;1318;3026867;-60
2022/08/10 06:58:50;;;;;;;38.20;21.00;;;;;;;23.69;65.76;99316.92;25062;1315;3071304;-60
2022/08/10 07:01:20;;;;;;;40.60;20.50;;;;;;;23.72;65.98;99321.84;25051;1317;3051695;-60
2022/08/10 07:03:58;;;;;;;26.30;19.70;;;;;;;23.91;65.33;99325.94;24961;1320;3026811;-60
2022/08/10 07:06:27;;;;;;;34.10;21.00;;;;;;;24.05;65.08;99331.23;25078;1317;3052538;-60
2022/08/10 07:08:57;;;;;;;23.70;15.10;;;;;;;24.11;65.28;99332.31;24999;1316;3028597;-61
2022/08/10 07:11:26;;;;;;;23.40;17.40;;;;;;;24.88;63.61;99326.27;25054;1316;3026824;-60
2022/08/10 07:13:57;;;;;;;33.20;18.00;;;;;;;25.45;61.79;99331.10;25068;1315;3026553;-60
2022/08/10 07:16:27;;;;;;;32.10;19.50;;;;;;;25.61;60.26;99340.23;25021;1316;3026922;-58
2022/08/10 07:18:57;;;;;;;35.60;19.30;;;;;;;25.56;60.41;99339.92;25060;1319;3026532;-59
2022/08/10 07:21:26;;;;;;;35.70;21.30;;;;;;;25.45;60.48;99336.41;25084;1316;3026510;-61
2022/08/10 07:23:55;;;;;;;34.40;21.70;;;;;;;25.22;61.12;99331.49;25025;1315;3026521;-59
2022/08/10 07:26:24;;;;;;;31.80;21.90;;;;;;;25.11;61.77;99329.48;25033;1316;3069795;-59
2022/08/10 07:28:53;;;;;;;41.20;21.40;;;;;;;24.97;62.56;99327.67;25075;1315;3026516;-60
2022/08/10 07:31:22;;;;;;;42.20;21.80;;;;;;;25.07;61.79;99330.39;25044;1316;3053841;-61
2022/08/10 07:33:52;;;;;;;35.70;21.60;;;;;;;25.11;61.51;99329.22;25084;1316;3026678;-57
2022/08/10 07:36:22;;;;;;;33.90;22.10;;;;;;;25.17;61.22;99332.55;25083;1316;3054949;-60
2022/08/10 07:38:52;;;;;;;35.70;21.30;;;;;;;25.16;59.99;99322.49;25044;1316;3026687;-60
2022/08/10 07:41:22;;;;;;;32.70;22.20;;;;;;;25.28;59.46;99326.59;25074;1316;3026835;-62
2022/08/10 07:43:51;;;;;;;44.70;22.50;;;;;;;25.45;58.92;99329.16;25047;1319;3027869;-61
2022/08/10 07:46:21;;;;;;;31.00;23.10;;;;;;;25.57;58.55;99328.15;25027;1318;3026676;-59
2022/08/10 07:48:56;;;;;;;31.50;22.60;;;;;;;25.60;57.82;99327.21;25059;1316;3068359;-60
2022/08/10 07:51:25;;;;;;;32.60;22.40;;;;;;;25.73;57.57;99330.98;25060;1316;3050884;-60
2022/08/10 07:53:54;;;;;;;36.30;23.80;;;;;;;25.82;57.68;99332.30;25090;1315;3026618;-60
2022/08/10 07:56:25;;;;;;;40.90;23.00;;;;;;;25.84;57.78;99334.20;25017;1316;3070508;-60
2022/08/10 07:58:56;;;;;;;36.70;22.90;;;;;;;25.83;58.05;99334.94;25115;1316;3027166;-61
2022/08/10 08:01:27;;;;;;;37.90;21.90;;;;;;;25.87;56.56;99331.95;25105;1316;3026560;-61
2022/08/10 08:03:56;;;;;;;35.30;22.20;;;;;;;25.90;56.86;99329.56;25023;1316;3026149;-63
2022/08/10 08:06:25;;;;;;;38.20;22.50;;;;;;;26.12;56.73;99326.96;25087;1316;3029685;-61
2022/08/10 08:08:57;;;;;;;37.40;21.50;;;;;;;26.33;56.48;99322.85;25047;1318;3052986;-58
2022/08/10 08:11:26;;;;;;;32.80;22.20;;;;;;;26.55;56.41;99325.40;25033;1316;3027170;-60
2022/08/10 08:13:55;;;;;;;38.40;23.20;;;;;;;26.76;56.04;99325.34;25110;1316;3025994;-61
2022/08/10 08:16:25;;;;;;;40.40;22.50;;;;;;;26.87;55.90;99322.55;24998;1317;3028464;-59
2022/08/10 08:18:54;;;;;;;36.30;20.50;;;;;;;26.89;54.84;99323.81;25113;1317;3052799;-61
2022/08/10 08:21:23;;;;;;;34.60;20.90;;;;;;;26.78;53.92;99315.55;24975;1317;3027299;-59
2022/08/10 08:23:53;;;;;;;33.90;20.90;;;;;;;26.78;54.13;99313.20;24897;1317;3026335;-60
2022/08/10 08:26:22;;;;;;;38.70;20.50;;;;;;;26.86;53.80;99308.83;24888;1317;3027276;-60
2022/08/10 08:28:51;;;;;;;28.80;19.50;;;;;;;26.85;52.65;99303.64;25038;1316;3026884;-61
2022/08/10 08:31:21;;;;;;;37.10;19.30;;;;;;;26.91;51.86;99301.43;24935;1317;3052161;-60
2022/08/10 08:33:50;;;;;;;39.70;18.40;;;;;;;26.85;51.40;99295.27;24997;1316;3026315;-61
2022/08/10 08:36:19;;;;;;;27.50;18.30;;;;;;;27.02;50.60;99287.43;24973;1320;3027066;-62
2022/08/10 08:38:49;;;;;;;24.90;16.90;;;;;;;27.06;49.73;99289.63;25011;1317;3028977;-62
2022/08/10 08:41:49;;;;;;;32.90;19.00;;;;;;;27.12;50.25;99283.98;25064;1316;3026122;-61
2022/08/10 08:44:56;;;;;;;27.10;18.50;;;;;;;27.26;51.15;99276.71;25003;1316;3054562;-63
2022/08/10 08:47:52;;;;;;;34.20;19.00;;;;;;;27.51;51.14;99273.71;25046;1317;3071763;-59
2022/08/10 08:50:34;;;;;;;28.30;18.30;;;;;;;27.55;49.77;99268.02;24937;1316;3051617;-58
2022/08/10 08:53:21;;;;;;;31.50;19.00;;;;;;;27.58;48.89;99271.17;24926;1316;3054581;-58
2022/08/10 08:56:01;;;;;;;29.70;19.40;;;;;;;27.57;49.50;99273.46;24991;1316;3055399;-60
2022/08/10 08:59:21;;;;;;;34.20;18.90;;;;;;;27.59;49.48;99270.46;25032;1316;3056847;-61
2022/08/10 09:02:00;;;;;;;36.00;18.50;;;;;;;27.78;48.44;99270.24;24980;1317;3049660;-60
2022/08/10 09:04:36;;;;;;;33.10;19.70;;;;;;;27.88;48.94;99271.55;25051;1317;3053031;-58
2022/08/10 09:07:14;;;;;;;36.10;20.40;;;;;;;27.93;49.83;99271.37;24947;1319;3054380;-61
2022/08/10 09:10:20;;;;;;;33.60;19.60;;;;;;;28.13;50.07;99266.86;24980;1318;3071664;-60
2022/08/10 09:13:17;;;;;;;37.80;20.20;;;;;;;28.42;49.55;99269.45;25046;1316;3050275;-58
2022/08/10 09:16:12;;;;;;;26.00;19.20;;;;;;;28.44;48.53;99263.73;24993;1316;3055693;-60
2022/08/10 09:18:41;;;;;;;;;;;;;;;28.60;48.12;99270.86;25051;1316;3054475;-60
2022/08/10 09:21:10;;;;;;;29.70;18.70;;;;;;;28.77;48.13;99268.80;25084;1316;3026965;-58
2022/08/10 09:23:44;;;;;;;24.90;18.70;;;;;;;29.01;47.80;99271.94;25041;1315;3053454;-61
2022/08/10 09:26:19;;;;;;;30.50;17.20;;;;;;;29.14;47.03;99267.88;25092;1315;3051808;-63
2022/08/10 09:28:49;;;;;;;30.30;17.00;;;;;;;29.27;46.44;99262.86;25043;1316;3054725;-61
2022/08/10 09:31:19;;;;;;;29.30;17.60;;;;;;;29.38;46.21;99269.77;25096;1314;3026314;-62
2022/08/10 09:34:06;;;;;;;28.20;18.70;;;;;;;29.44;46.09;99265.85;25080;1316;3026621;-60
2022/08/10 09:36:55;;;;;;;28.30;17.90;;;;;;;29.60;46.01;99266.34;25108;1316;3052694;-61
2022/08/10 09:39:29;;;;;;;24.70;17.00;;;;;;;29.74;45.85;99263.16;25108;1316;3072098;-60
2022/08/10 09:42:16;;;;;;;24.70;16.80;;;;;;;29.96;45.86;99264.23;25069;1315;3052254;-63
2022/08/10 09:45:17;;;;;;;20.50;15.70;;;;;;;30.37;43.50;99261.23;25056;1316;3054457;-61
2022/08/10 09:48:08;;;;;;;27.90;16.30;;;;;;;30.66;41.84;99259.21;25131;1316;3055886;-60
2022/08/10 09:51:04;;;;;;;22.70;15.50;;;;;;;30.80;42.02;99263.51;25109;1316;3056789;-61
2022/08/10 09:53:43;;;;;;;20.60;15.40;;;;;;;30.93;41.49;99257.06;25098;1315;3049493;-62
2022/08/10 09:56:47;;;;;;;26.50;15.70;;;;;;;30.91;41.88;99262.42;25096;1315;3056380;-60
2022/08/10 09:59:25;;;;;;;24.40;15.50;;;;;;;31.20;41.47;99257.15;25093;1315;3054366;-59
2022/08/10 10:02:16;;;;;;;25.20;16.10;;;;;;;31.22;41.22;99260.41;25024;1316;3070283;-60
2022/08/10 10:05:28;;;;;;;29.60;15.90;;;;;;;31.15;41.27;99255.34;25097;1317;3049517;-59
2022/08/10 10:08:27;;;;;;;24.80;15.70;;;;;;;31.10;41.69;99255.66;24976;1318;3052155;-62
2022/08/10 10:10:59;;;;;;;27.90;15.80;;;;;;;31.31;41.92;99258.78;25031;1317;3052821;-64
2022/08/10 10:13:38;;;;;;;23.80;16.60;;;;;;;31.57;41.33;99256.91;25007;1317;3026492;-59
2022/08/10 10:16:32;;;;;;;27.10;16.20;;;;;;;31.75;40.85;99252.96;24917;1317;3053035;-62
2022/08/10 10:19:36;;;;;;;27.30;17.00;;;;;;;31.71;40.71;99255.33;25204;1318;3055504;-59
2022/08/10 10:22:36;;;;;;;26.60;17.00;;;;;;;31.58;41.11;99249.61;25128;1315;3051912;-61
2022/08/10 10:25:12;;;;;;;23.10;15.70;;;;;;;31.60;41.42;99241.39;25066;1316;3070071;-62
2022/08/10 10:27:47;;;;;;;29.00;16.40;;;;;;;31.53;40.79;99244.05;25112;1317;3050990;-63
2022/08/10 10:30:16;;;;;;;24.10;15.80;;;;;;;31.38;40.82;99247.48;25023;1317;3052530;-62
2022/08/10 10:32:59;;;;;;;30.20;17.20;;;;;;;31.57;41.21;99245.39;25053;1317;3026519;-63
2022/08/10 10:35:43;;;;;;;24.60;15.60;;;;;;;31.69;40.84;99242.37;25036;1317;3055937;-65
2022/08/10 10:38:12;;;;;;;;;;;;;;;31.86;40.30;99238.77;25251;1317;3049568;-64
2022/08/10 10:40:48;;;;;;;27.10;15.50;;;;;;;31.61;40.52;99247.94;24968;1317;3028535;-62
2022/08/10 10:43:25;;;;;;;27.80;14.90;;;;;;;31.80;40.58;99239.58;25085;1317;3059245;-63
2022/08/10 10:46:15;;;;;;;31.60;15.10;;;;;;;31.98;40.49;99241.52;25033;1318;3052881;-63
2022/08/10 10:49:16;;;;;;;23.10;15.60;;;;;;;31.98;39.69;99246.09;25279;1317;3054514;-63
2022/08/10 10:52:27;;;;;;;26.80;15.50;;;;;;;31.90;39.79;99244.90;25006;1317;3054739;-62
2022/08/10 10:55:07;;;;;;;29.80;16.20;;;;;;;32.04;39.86;99241.83;24928;1318;3069524;-62
2022/08/10 10:57:45;;;;;;;36.70;16.70;;;;;;;32.07;39.19;99239.05;25019;1317;3051895;-61
2022/08/10 11:00:14;;;;;;;27.60;15.20;;;;;;;32.17;38.33;99240.37;25217;1318;3052920;-63
2022/08/10 11:03:01;;;;;;;24.30;16.10;;;;;;;32.44;38.02;99236.94;25006;1318;3026565;-62
2022/08/10 11:05:54;;;;;;;31.90;16.60;;;;;;;32.72;37.77;99233.33;24986;1318;3055872;-62
2022/08/10 11:08:25;;;;;;;28.60;16.10;;;;;;;32.93;37.19;99229.36;25153;1318;3052632;-62
2022/08/10 11:11:13;;;;;;;37.60;15.90;;;;;;;33.11;37.05;99230.48;25096;1317;3026902;-64
2022/08/10 11:13:49;;;;;;;24.80;15.00;;;;;;;33.19;36.64;99237.95;24992;1317;3051868;-64
2022/08/10 11:16:34;;;;;;;22.60;14.90;;;;;;;32.92;36.76;99232.88;25050;1318;3069899;-64
2022/08/10 11:19:12;;;;;;;29.10;15.40;;;;;;;32.94;37.19;99223.83;25056;1318;3051219;-62
2022/08/10 11:29:34;;;;;;;23.70;14.30;;;;;;;32.81;35.91;99220.16;25319;1317;3026590;-67
2022/08/10 11:32:18;;;;;;;23.10;14.90;;;;;;;32.29;37.22;99220.23;25022;1317;3070819;-60
2022/08/10 11:35:07;;;;;;;22.70;15.30;;;;;;;32.18;37.72;99217.39;25018;1317;3051178;-62
2022/08/10 11:37:54;;;;;;;27.90;15.10;;;;;;;32.28;37.95;99214.77;25013;1317;3053186;-61
2022/08/10 11:40:27;;;;;;;30.40;15.00;;;;;;;32.38;37.62;99212.40;25050;1318;3054782;-61
2022/08/10 11:43:13;;;;;;;25.10;15.40;;;;;;;32.55;37.25;99208.81;25041;1318;3027120;-63
2022/08/10 11:45:45;;;;;;;31.60;14.70;;;;;;;32.60;37.04;99206.63;24991;1318;3052617;-66